sensor_id;sensor_type;location;lat;lon;timestamp;pressure;altitude;pressure_sealevel;temperature;humidity
12178;BME280;6152;48.728;9.256;2023-03-01T00:01:34;97794.84;;;-1.19;100.00
12178;BME280;6152;48.728;9.256;2023-03-01T00:04:00;97795.69;;;-1.23;100.00
12178;BME280;6152;48.728;9.256;2023-03-01T00:06:28;97794.84;;;-1.21;100.00
12178;BME280;6152;48.728;9.256;2023-03-01T00:08:54;97801.66;;;-1.23;100.00
12178;BME280;6152;48.728;9.256;2023-03-01T00:11:24;97803.38;;;-1.31;100.00
12178;BME280;6152;48.728;9.256;2023-03-01T00:13:52;97797.44;;;-1.33;100.00
12178;BME280;6152;48.728;9.256;2023-03-01T00:16:22;97802.56;;;-1.31;100.00
12178;BME280;6152;48.728;9.256;2023-03-01T00:18:49;97799.13;;;-1.38;100.00
12178;BME280;6152;48.728;9.256;2023-03-01T00:21:17;97800.84;;;-1.32;100.00
12178;BME280;6152;48.728;9.256;2023-03-01T00:23:43;97797.44;;;-1.31;100.00
12178;BME280;6152;48.728;9.256;2023-03-01T00:26:12;97798.31;;;-1.38;100.00
12178;BME280;6152;48.728;9.256;2023-03-01T00:28:38;97795.75;;;-1.38;100.00
12178;BME280;6152;48.728;9.256;2023-03-01T00:31:06;97804.25;;;-1.39;100.00
12178;BME280;6152;48.728;9.256;2023-03-01T00:33:32;97798.34;;;-1.41;100.00
12178;BME280;6152;48.728;9.256;2023-03-01T00:35:59;97796.63;;;-1.45;100.00
12178;BME280;6152;48.728;9.256;2023-03-01T00:38:26;97789.84;;;-1.49;100.00
12178;BME280;6152;48.728;9.256;2023-03-01T00:40:52;97792.41;;;-1.52;100.00
12178;BME280;6152;48.728;9.256;2023-03-01T00:43:19;97785.59;;;-1.57;100.00
12178;BME280;6152;48.728;9.256;2023-03-01T00:45:45;97792.41;;;-1.60;100.00
12178;BME280;6152;48.728;9.256;2023-03-01T00:48:11;97787.28;;;-1.62;100.00
12178;BME280;6152;48.728;9.256;2023-03-01T00:50:37;97788.16;;;-1.64;100.00
12178;BME280;6152;48.728;9.256;2023-03-01T00:53:03;97783.06;;;-1.67;100.00
12178;BME280;6152;48.728;9.256;2023-03-01T00:55:31;97789.88;;;-1.69;100.00
12178;BME280;6152;48.728;9.256;2023-03-01T00:57:57;97783.94;;;-1.70;100.00
12178;BME280;6152;48.728;9.256;2023-03-01T01:00:23;97778.81;;;-1.67;100.00
12178;BME280;6152;48.728;9.256;2023-03-01T01:02:49;97775.41;;;-1.66;100.00
12178;BME280;6152;48.728;9.256;2023-03-01T01:05:15;97782.22;;;-1.68;100.00
12178;BME280;6152;48.728;9.256;2023-03-01T01:07:47;97774.53;;;-1.65;100.00
12178;BME280;6152;48.728;9.256;2023-03-01T01:10:13;97775.41;;;-1.66;100.00
12178;BME280;6152;48.728;9.256;2023-03-01T01:12:43;97778.81;;;-1.64;100.00
12178;BME280;6152;48.728;9.256;2023-03-01T01:15:10;97776.25;;;-1.67;100.00
12178;BME280;6152;48.728;9.256;2023-03-01T01:17:38;97776.25;;;-1.68;100.00
12178;BME280;6152;48.728;9.256;2023-03-01T01:20:05;97776.25;;;-1.68;100.00
12178;BME280;6152;48.728;9.256;2023-03-01T01:22:31;97773.72;;;-1.67;100.00
12178;BME280;6152;48.728;9.256;2023-03-01T01:24:57;97765.22;;;-1.66;100.00
12178;BME280;6152;48.728;9.256;2023-03-01T01:27:23;97765.19;;;-1.69;100.00
12178;BME280;6152;48.728;9.256;2023-03-01T01:29:50;97764.34;;;-1.63;100.00
12178;BME280;6152;48.728;9.256;2023-03-01T01:32:18;97763.53;;;-1.70;100.00
12178;BME280;6152;48.728;9.256;2023-03-01T01:34:44;97760.09;;;-1.69;100.00
12178;BME280;6152;48.728;9.256;2023-03-01T01:37:10;97758.41;;;-1.67;100.00
12178;BME280;6152;48.728;9.256;2023-03-01T01:39:36;97751.63;;;-1.74;100.00
12178;BME280;6152;48.728;9.256;2023-03-01T01:42:02;97758.44;;;-1.73;100.00
12178;BME280;6152;48.728;9.256;2023-03-01T01:44:29;97748.19;;;-1.76;100.00
12178;BME280;6152;48.728;9.256;2023-03-01T01:47:03;97746.50;;;-1.68;100.00
12178;BME280;6152;48.728;9.256;2023-03-01T01:49:38;97753.28;;;-1.59;100.00
12178;BME280;6152;48.728;9.256;2023-03-01T01:54:45;97749.00;;;-1.45;100.00
12178;BME280;6152;48.728;9.256;2023-03-01T01:57:16;97744.69;;;-1.34;100.00
12178;BME280;6152;48.728;9.256;2023-03-01T01:59:50;97746.38;;;-1.28;100.00
12178;BME280;6152;48.728;9.256;2023-03-01T02:02:19;97748.88;;;-1.24;100.00
12178;BME280;6152;48.728;9.256;2023-03-01T02:04:47;97736.09;;;-1.16;100.00
12178;BME280;6152;48.728;9.256;2023-03-01T02:07:16;97737.75;;;-1.09;100.00
12178;BME280;6152;48.728;9.256;2023-03-01T02:09:47;97736.91;;;-1.04;100.00
12178;BME280;6152;48.728;9.256;2023-03-01T02:12:15;97724.97;;;-1.05;100.00
12178;BME280;6152;48.728;9.256;2023-03-01T02:14:42;97730.91;;;-1.03;100.00
12178;BME280;6152;48.728;9.256;2023-03-01T02:17:11;97721.53;;;-0.97;100.00
12178;BME280;6152;48.728;9.256;2023-03-01T02:27:54;97707.84;;;-0.87;100.00
12178;BME280;6152;48.728;9.256;2023-03-01T02:30:25;97710.44;;;-0.92;100.00
12178;BME280;6152;48.728;9.256;2023-03-01T02:32:52;97709.56;;;-0.89;100.00
12178;BME280;6152;48.728;9.256;2023-03-01T02:35:21;97703.63;;;-0.91;100.00
12178;BME280;6152;48.728;9.256;2023-03-01T02:37:47;97695.09;;;-0.92;100.00
12178;BME280;6152;48.728;9.256;2023-03-01T02:40:18;97697.63;;;-0.84;100.00
12178;BME280;6152;48.728;9.256;2023-03-01T02:42:53;97693.41;;;-0.90;100.00
12178;BME280;6152;48.728;9.256;2023-03-01T02:45:20;97688.19;;;-0.78;100.00
12178;BME280;6152;48.728;9.256;2023-03-01T02:47:46;97691.63;;;-0.80;100.00
12178;BME280;6152;48.728;9.256;2023-03-01T02:50:22;97689.94;;;-0.80;100.00
12178;BME280;6152;48.728;9.256;2023-03-01T02:53:04;97688.19;;;-0.78;100.00
12178;BME280;6152;48.728;9.256;2023-03-01T02:55:33;97664.44;;;-0.89;100.00
12178;BME280;6152;48.728;9.256;2023-03-01T02:58:02;97683.13;;;-0.81;100.00
12178;BME280;6152;48.728;9.256;2023-03-01T03:00:38;97678.00;;;-0.81;100.00
12178;BME280;6152;48.728;9.256;2023-03-01T03:03:12;97677.97;;;-0.78;100.00
12178;BME280;6152;48.728;9.256;2023-03-01T03:05:39;97679.72;;;-0.80;100.00
12178;BME280;6152;48.728;9.256;2023-03-01T03:08:05;97670.31;;;-0.76;100.00
12178;BME280;6152;48.728;9.256;2023-03-01T03:10:36;97674.56;;;-0.78;100.00
12178;BME280;6152;48.728;9.256;2023-03-01T03:13:06;97671.19;;;-0.82;100.00
12178;BME280;6152;48.728;9.256;2023-03-01T03:15:33;97667.75;;;-0.78;100.00
12178;BME280;6152;48.728;9.256;2023-03-01T03:18:06;97661.78;;;-0.78;100.00
12178;BME280;6152;48.728;9.256;2023-03-01T03:20:33;97655.84;;;-0.79;100.00
12178;BME280;6152;48.728;9.256;2023-03-01T03:23:00;97661.78;;;-0.78;100.00
12178;BME280;6152;48.728;9.256;2023-03-01T03:25:28;97660.09;;;-0.79;100.00
12178;BME280;6152;48.728;9.256;2023-03-01T03:27:54;97661.81;;;-0.80;100.00
12178;BME280;6152;48.728;9.256;2023-03-01T03:30:29;97652.41;;;-0.75;100.00
12178;BME280;6152;48.728;9.256;2023-03-01T03:32:57;97659.25;;;-0.77;100.00
12178;BME280;6152;48.728;9.256;2023-03-01T03:35:29;97650.69;;;-0.73;100.00
12178;BME280;6152;48.728;9.256;2023-03-01T03:37:57;97660.03;;;-0.72;100.00
12178;BME280;6152;48.728;9.256;2023-03-01T03:43:06;97666.88;;;-0.69;100.00
12178;BME280;6152;48.728;9.256;2023-03-01T03:45:32;97668.56;;;-0.71;100.00
12178;BME280;6152;48.728;9.256;2023-03-01T03:47:59;97660.91;;;-0.71;100.00
12178;BME280;6152;48.728;9.256;2023-03-01T03:50:26;97660.84;;;-0.64;100.00
12178;BME280;6152;48.728;9.256;2023-03-01T03:52:52;97654.06;;;-0.68;100.00
12178;BME280;6152;48.728;9.256;2023-03-01T03:55:18;97658.28;;;-0.62;100.00
12178;BME280;6152;48.728;9.256;2023-03-01T03:57:46;97643.84;;;-0.68;100.00
12178;BME280;6152;48.728;9.256;2023-03-01T04:00:21;97649.75;;;-0.61;100.00
12178;BME280;6152;48.728;9.256;2023-03-01T04:02:50;97642.13;;;-0.69;100.00
12178;BME280;6152;48.728;9.256;2023-03-01T04:05:18;97640.47;;;-0.70;100.00
12178;BME280;6152;48.728;9.256;2023-03-01T04:07:45;97638.69;;;-0.65;100.00
12178;BME280;6152;48.728;9.256;2023-03-01T04:10:14;97637.03;;;-0.66;100.00
12178;BME280;6152;48.728;9.256;2023-03-01T04:12:40;97645.56;;;-0.70;100.00
12178;BME280;6152;48.728;9.256;2023-03-01T04:15:10;97636.16;;;-0.68;100.00
12178;BME280;6152;48.728;9.256;2023-03-01T04:17:46;97630.22;;;-0.67;100.00
12178;BME280;6152;48.728;9.256;2023-03-01T04:20:15;97623.38;;;-0.65;100.00
12178;BME280;6152;48.728;9.256;2023-03-01T04:22:56;97625.84;;;-0.59;100.00
12178;BME280;6152;48.728;9.256;2023-03-01T04:25:23;97628.47;;;-0.65;100.00
12178;BME280;6152;48.728;9.256;2023-03-01T04:27:49;97624.25;;;-0.66;100.00
12178;BME280;6152;48.728;9.256;2023-03-01T04:30:16;97625.09;;;-0.68;100.00
12178;BME280;6152;48.728;9.256;2023-03-01T04:32:42;97631.91;;;-0.67;100.00
12178;BME280;6152;48.728;9.256;2023-03-01T04:35:09;97631.06;;;-0.66;100.00
12178;BME280;6152;48.728;9.256;2023-03-01T04:37:35;97636.19;;;-0.69;100.00
12178;BME280;6152;48.728;9.256;2023-03-01T04:40:02;97628.53;;;-0.71;100.00
12178;BME280;6152;48.728;9.256;2023-03-01T04:42:41;97630.22;;;-0.67;100.00
12178;BME280;6152;48.728;9.256;2023-03-01T04:45:08;97630.19;;;-0.68;100.00
12178;BME280;6152;48.728;9.256;2023-03-01T04:47:40;97625.09;;;-0.67;100.00
12178;BME280;6152;48.728;9.256;2023-03-01T04:50:07;97619.91;;;-0.61;100.00
12178;BME280;6152;48.728;9.256;2023-03-01T04:52:33;97622.50;;;-0.64;100.00
12178;BME280;6152;48.728;9.256;2023-03-01T04:55:00;97628.47;;;-0.63;100.00
12178;BME280;6152;48.728;9.256;2023-03-01T04:57:26;97622.47;;;-0.59;100.00
12178;BME280;6152;48.728;9.256;2023-03-01T04:59:52;97625.03;;;-0.61;100.00
12178;BME280;6152;48.728;9.256;2023-03-01T05:02:18;97630.16;;;-0.61;100.00
12178;BME280;6152;48.728;9.256;2023-03-01T05:04:44;97625.84;;;-0.57;100.00
12178;BME280;6152;48.728;9.256;2023-03-01T05:07:10;97626.72;;;-0.57;100.00
12178;BME280;6152;48.728;9.256;2023-03-01T05:09:39;97630.91;;;-0.51;100.00
12178;BME280;6152;48.728;9.256;2023-03-01T05:12:05;97626.69;;;-0.54;100.00
12178;BME280;6152;48.728;9.256;2023-03-01T05:14:31;97621.59;;;-0.57;100.00
12178;BME280;6152;48.728;9.256;2023-03-01T05:16:57;97628.38;;;-0.53;100.00
12178;BME280;6152;48.728;9.256;2023-03-01T05:19:30;97613.06;;;-0.59;100.00
12178;BME280;6152;48.728;9.256;2023-03-01T05:21:57;97613.00;;;-0.49;100.00
12178;BME280;6152;48.728;9.256;2023-03-01T05:24:34;97617.19;;;-0.39;100.00
12178;BME280;6152;48.728;9.256;2023-03-01T05:27:01;97619.78;;;-0.42;100.00
12178;BME280;6152;48.728;9.256;2023-03-01T05:29:28;97612.94;;;-0.43;100.00
12178;BME280;6152;48.728;9.256;2023-03-01T05:31:59;97607.75;;;-0.34;100.00
12178;BME280;6152;48.728;9.256;2023-03-01T05:34:29;97614.66;;;-0.42;100.00
12178;BME280;6152;48.728;9.256;2023-03-01T05:36:56;97613.81;;;-0.44;100.00
12178;BME280;6152;48.728;9.256;2023-03-01T05:39:24;97618.03;;;-0.40;100.00
12178;BME280;6152;48.728;9.256;2023-03-01T05:41:59;97619.59;;;-0.27;100.00
12178;BME280;6152;48.728;9.256;2023-03-01T05:44:29;97623.03;;;-0.28;100.00
12178;BME280;6152;48.728;9.256;2023-03-01T05:46:56;97623.06;;;-0.34;100.00
12178;BME280;6152;48.728;9.256;2023-03-01T05:49:22;97623.06;;;-0.34;100.00
12178;BME280;6152;48.728;9.256;2023-03-01T05:51:52;97621.31;;;-0.26;100.00
12178;BME280;6152;48.728;9.256;2023-03-01T05:54:20;97616.25;;;-0.32;100.00
12178;BME280;6152;48.728;9.256;2023-03-01T05:56:47;97611.19;;;-0.35;100.00
12178;BME280;6152;48.728;9.256;2023-03-01T05:59:14;97611.22;;;-0.38;100.00
12178;BME280;6152;48.728;9.256;2023-03-01T06:01:42;97608.66;;;-0.38;100.00
12178;BME280;6152;48.728;9.256;2023-03-01T06:04:08;97606.06;;;-0.35;100.00
12178;BME280;6152;48.728;9.256;2023-03-01T06:06:35;97597.44;;;-0.25;100.00
12178;BME280;6152;48.728;9.256;2023-03-01T06:09:06;97594.06;;;-0.30;100.00
12178;BME280;6152;48.728;9.256;2023-03-01T06:11:34;97601.75;;;-0.30;100.00
12178;BME280;6152;48.728;9.256;2023-03-01T06:14:01;97599.13;;;-0.24;100.00
12178;BME280;6152;48.728;9.256;2023-03-01T06:16:27;97605.19;;;-0.31;100.00
12178;BME280;6152;48.728;9.256;2023-03-01T06:18:53;97609.44;;;-0.33;100.00
12178;BME280;6152;48.728;9.256;2023-03-01T06:21:19;97607.72;;;-0.31;100.00
12178;BME280;6152;48.728;9.256;2023-03-01T06:23:45;97606.94;;;-0.39;100.00
12178;BME280;6152;48.728;9.256;2023-03-01T06:26:11;97601.00;;;-0.38;100.00
12178;BME280;6152;48.728;9.256;2023-03-01T06:28:37;97597.63;;;-0.43;100.00
12178;BME280;6152;48.728;9.256;2023-03-01T06:31:04;97607.78;;;-0.37;100.00
12178;BME280;6152;48.728;9.256;2023-03-01T06:33:34;97606.91;;;-0.35;100.00
12178;BME280;6152;48.728;9.256;2023-03-01T06:36:00;97605.19;;;-0.33;100.00
12178;BME280;6152;48.728;9.256;2023-03-01T06:38:26;97606.81;;;-0.27;100.00
12178;BME280;6152;48.728;9.256;2023-03-01T06:40:53;97605.91;;;-0.20;100.00
12178;BME280;6152;48.728;9.256;2023-03-01T06:43:21;97606.81;;;-0.26;100.00
12178;BME280;6152;48.728;9.256;2023-03-01T06:45:47;97609.31;;;-0.18;100.00
12178;BME280;6152;48.728;9.256;2023-03-01T06:48:13;97610.97;;;-0.17;100.00
12178;BME280;6152;48.728;9.256;2023-03-01T06:50:39;97611.03;;;-0.23;100.00
12178;BME280;6152;48.728;9.256;2023-03-01T06:53:05;97615.25;;;-0.19;100.00
12178;BME280;6152;48.728;9.256;2023-03-01T06:55:32;97622.16;;;-0.27;100.00
12178;BME280;6152;48.728;9.256;2023-03-01T06:58:00;97619.63;;;-0.29;100.00
12178;BME280;6152;48.728;9.256;2023-03-01T07:00:27;97606.06;;;-0.35;100.00
12178;BME280;6152;48.728;9.256;2023-03-01T07:02:54;97604.44;;;-0.42;100.00
12178;BME280;6152;48.728;9.256;2023-03-01T07:05:21;97602.75;;;-0.48;100.00
12178;BME280;6152;48.728;9.256;2023-03-01T07:07:47;97597.00;;;-0.70;100.00
12178;BME280;6152;48.728;9.256;2023-03-01T07:10:13;97602.13;;;-0.71;100.00
12178;BME280;6152;48.728;9.256;2023-03-01T07:12:39;97602.91;;;-0.65;100.00
12178;BME280;6152;48.728;9.256;2023-03-01T07:15:07;97602.06;;;-0.62;100.00
12178;BME280;6152;48.728;9.256;2023-03-01T07:17:35;97600.41;;;-0.71;100.00
12178;BME280;6152;48.728;9.256;2023-03-01T07:20:01;97598.72;;;-0.70;100.00
12178;BME280;6152;48.728;9.256;2023-03-01T07:22:27;97590.94;;;-0.57;100.00
12178;BME280;6152;48.728;9.256;2023-03-01T07:24:53;97594.31;;;-0.55;100.00
12178;BME280;6152;48.728;9.256;2023-03-01T07:27:19;97599.38;;;-0.52;100.00
12178;BME280;6152;48.728;9.256;2023-03-01T07:29:45;97589.94;;;-0.43;100.00
12178;BME280;6152;48.728;9.256;2023-03-01T07:32:11;97582.28;;;-0.43;100.00
12178;BME280;6152;48.728;9.256;2023-03-01T07:34:38;97587.28;;;-0.34;100.00
12178;BME280;6152;48.728;9.256;2023-03-01T07:37:04;97584.78;;;-0.40;100.00
12178;BME280;6152;48.728;9.256;2023-03-01T07:39:30;97586.47;;;-0.35;100.00
12178;BME280;6152;48.728;9.256;2023-03-01T07:41:56;97589.84;;;-0.31;100.00
12178;BME280;6152;48.728;9.256;2023-03-01T07:44:22;97579.50;;;-0.21;100.00
12178;BME280;6152;48.728;9.256;2023-03-01T07:46:48;97576.78;;;-0.09;100.00
12178;BME280;6152;48.728;9.256;2023-03-01T07:49:14;97569.13;;;-0.10;100.00
12178;BME280;6152;48.728;9.256;2023-03-01T07:51:40;97573.34;;;-0.06;100.00
12178;BME280;6152;48.728;9.256;2023-03-01T07:54:07;97571.44;;;0.11;100.00
12178;BME280;6152;48.728;9.256;2023-03-01T07:56:33;97570.53;;;0.17;100.00
12178;BME280;6152;48.728;9.256;2023-03-01T07:59:00;97577.28;;;0.21;100.00
12178;BME280;6152;48.728;9.256;2023-03-01T08:01:26;97572.25;;;0.16;100.00
12178;BME280;6152;48.728;9.256;2023-03-01T08:03:52;97566.25;;;0.17;100.00
12178;BME280;6152;48.728;9.256;2023-03-01T08:06:18;97561.81;;;0.28;100.00
12178;BME280;6152;48.728;9.256;2023-03-01T08:08:45;97566.00;;;0.37;100.00
12178;BME280;6152;48.728;9.256;2023-03-01T08:11:13;97564.84;;;0.58;100.00
12178;BME280;6152;48.728;9.256;2023-03-01T08:13:40;97565.63;;;0.63;100.00
12178;BME280;6152;48.728;9.256;2023-03-01T08:16:09;97563.00;;;0.66;100.00
12178;BME280;6152;48.728;9.256;2023-03-01T08:18:36;97568.13;;;0.69;100.00
12178;BME280;6152;48.728;9.256;2023-03-01T08:21:10;97566.94;;;0.89;100.00
12178;BME280;6152;48.728;9.256;2023-03-01T08:23:37;97563.38;;;0.98;100.00
12178;BME280;6152;48.728;9.256;2023-03-01T08:26:22;97560.81;;;0.99;100.00
12178;BME280;6152;48.728;9.256;2023-03-01T08:28:48;97558.03;;;1.13;100.00
12178;BME280;6152;48.728;9.256;2023-03-01T08:31:23;97558.72;;;1.21;100.00
12178;BME280;6152;48.728;9.256;2023-03-01T08:33:50;97554.31;;;1.29;100.00
12178;BME280;6152;48.728;9.256;2023-03-01T08:36:25;97552.44;;;1.40;100.00
12178;BME280;6152;48.728;9.256;2023-03-01T08:38:51;97557.25;;;1.59;100.00
12178;BME280;6152;48.728;9.256;2023-03-01T08:41:18;97558.91;;;1.60;100.00
12178;BME280;6152;48.728;9.256;2023-03-01T08:43:44;97556.06;;;1.75;100.00
12178;BME280;6152;48.728;9.256;2023-03-01T08:46:11;97551.47;;;1.92;100.00
12178;BME280;6152;48.728;9.256;2023-03-01T08:48:37;97554.56;;;2.08;97.84
12178;BME280;6152;48.728;9.256;2023-03-01T08:51:19;97550.19;;;2.13;99.33
12178;BME280;6152;48.728;9.256;2023-03-01T08:53:46;97545.41;;;2.37;97.23
12178;BME280;6152;48.728;9.256;2023-03-01T08:56:14;97554.53;;;2.50;93.46
12178;BME280;6152;48.728;9.256;2023-03-01T08:58:42;97545.06;;;2.52;94.10
12178;BME280;6152;48.728;9.256;2023-03-01T09:01:14;97540.34;;;2.71;89.65
12178;BME280;6152;48.728;9.256;2023-03-01T09:03:40;97536.72;;;2.80;91.50
12178;BME280;6152;48.728;9.256;2023-03-01T09:06:08;97530.88;;;3.10;86.97
12178;BME280;6152;48.728;9.256;2023-03-01T09:08:42;97534.28;;;3.44;85.30
12178;BME280;6152;48.728;9.256;2023-03-01T09:11:13;97536.94;;;3.74;82.13
12178;BME280;6152;48.728;9.256;2023-03-01T09:13:41;97525.31;;;3.90;79.42
12178;BME280;6152;48.728;9.256;2023-03-01T09:16:08;97515.31;;;4.10;76.87
12178;BME280;6152;48.728;9.256;2023-03-01T09:18:35;97501.88;;;4.30;75.24
12178;BME280;6152;48.728;9.256;2023-03-01T09:23:37;97500.59;;;4.97;68.01
12178;BME280;6152;48.728;9.256;2023-03-01T09:26:08;97500.13;;;5.12;66.83
12178;BME280;6152;48.728;9.256;2023-03-01T09:28:36;97508.13;;;5.31;65.70
12178;BME280;6152;48.728;9.256;2023-03-01T09:31:03;97505.53;;;5.31;64.94
12178;BME280;6152;48.728;9.256;2023-03-01T09:33:30;97504.69;;;5.55;63.04
12178;BME280;6152;48.728;9.256;2023-03-01T09:36:02;97499.38;;;5.83;61.34
12178;BME280;6152;48.728;9.256;2023-03-01T09:38:30;97504.78;;;6.01;60.02
12178;BME280;6152;48.728;9.256;2023-03-01T09:40:56;97503.38;;;6.16;58.68
12178;BME280;6152;48.728;9.256;2023-03-01T09:43:35;97499.41;;;6.52;59.23
12178;BME280;6152;48.728;9.256;2023-03-01T09:46:08;97498.03;;;6.87;56.37
12178;BME280;6152;48.728;9.256;2023-03-01T09:48:46;97494.75;;;7.04;55.43
12178;BME280;6152;48.728;9.256;2023-03-01T09:51:32;97494.13;;;7.41;55.18
12178;BME280;6152;48.728;9.256;2023-03-01T09:54:00;97484.44;;;8.03;52.29
12178;BME280;6152;48.728;9.256;2023-03-01T09:57:05;97482.94;;;8.55;51.56
12178;BME280;6152;48.728;9.256;2023-03-01T10:02:39;97478.34;;;13.23;41.60
12178;BME280;6152;48.728;9.256;2023-03-01T10:07:40;97457.09;;;16.29;33.84
12178;BME280;6152;48.728;9.256;2023-03-01T10:12:53;97443.31;;;18.58;30.77
12178;BME280;6152;48.728;9.256;2023-03-01T10:15:30;97442.03;;;18.62;29.17
12178;BME280;6152;48.728;9.256;2023-03-01T10:18:09;97440.22;;;17.72;28.54
12178;BME280;6152;48.728;9.256;2023-03-01T10:23:16;97436.13;;;20.50;26.76
12178;BME280;6152;48.728;9.256;2023-03-01T10:26:37;97424.13;;;21.72;24.98
12178;BME280;6152;48.728;9.256;2023-03-01T10:29:11;97415.75;;;21.84;24.00
12178;BME280;6152;48.728;9.256;2023-03-01T10:31:45;97413.13;;;22.78;24.06
12178;BME280;6152;48.728;9.256;2023-03-01T10:34:33;97399.66;;;23.70;23.19
12178;BME280;6152;48.728;9.256;2023-03-01T10:37:10;97396.91;;;24.10;21.38
12178;BME280;6152;48.728;9.256;2023-03-01T10:39:37;97400.97;;;23.74;21.52
12178;BME280;6152;48.728;9.256;2023-03-01T10:42:32;97397.59;;;23.07;21.72
12178;BME280;6152;48.728;9.256;2023-03-01T10:47:41;97389.59;;;24.28;21.28
12178;BME280;6152;48.728;9.256;2023-03-01T10:50:23;97388.66;;;23.89;20.41
12178;BME280;6152;48.728;9.256;2023-03-01T10:52:58;97377.50;;;23.93;21.08
12178;BME280;6152;48.728;9.256;2023-03-01T10:55:36;97385.47;;;24.01;20.83
12178;BME280;6152;48.728;9.256;2023-03-01T10:58:18;97384.25;;;24.28;21.30
12178;BME280;6152;48.728;9.256;2023-03-01T11:05:57;97367.66;;;24.26;20.14
12178;BME280;6152;48.728;9.256;2023-03-01T11:08:39;97354.13;;;23.81;20.08
12178;BME280;6152;48.728;9.256;2023-03-01T11:11:31;97358.03;;;24.17;20.01
12178;BME280;6152;48.728;9.256;2023-03-01T11:14:18;97364.06;;;23.14;21.01
12178;BME280;6152;48.728;9.256;2023-03-01T11:16:48;97354.06;;;24.83;20.16
12178;BME280;6152;48.728;9.256;2023-03-01T11:19:23;97354.13;;;24.75;20.01
12178;BME280;6152;48.728;9.256;2023-03-01T11:22:03;97338.34;;;25.79;19.03
12178;BME280;6152;48.728;9.256;2023-03-01T11:27:08;97340.44;;;24.86;19.14
12178;BME280;6152;48.728;9.256;2023-03-01T11:29:45;97331.22;;;25.56;18.92
12178;BME280;6152;48.728;9.256;2023-03-01T11:32:14;97320.38;;;24.67;19.80
12178;BME280;6152;48.728;9.256;2023-03-01T11:34:58;97318.47;;;24.53;19.67
12178;BME280;6152;48.728;9.256;2023-03-01T11:40:26;97317.47;;;24.15;19.82
12178;BME280;6152;48.728;9.256;2023-03-01T11:46:22;97304.78;;;24.87;19.44
12178;BME280;6152;48.728;9.256;2023-03-01T11:49:02;97301.16;;;24.80;19.27
12178;BME280;6152;48.728;9.256;2023-03-01T11:52:05;97312.66;;;24.49;19.21
12178;BME280;6152;48.728;9.256;2023-03-01T12:00:22;97285.75;;;25.87;18.35
12178;BME280;6152;48.728;9.256;2023-03-01T12:05:55;97286.25;;;24.71;19.81
12178;BME280;6152;48.728;9.256;2023-03-01T12:08:42;97269.03;;;25.79;18.54
12178;BME280;6152;48.728;9.256;2023-03-01T12:19:46;97244.78;;;24.99;19.51
12178;BME280;6152;48.728;9.256;2023-03-01T12:25:16;97233.06;;;25.75;18.81
12178;BME280;6152;48.728;9.256;2023-03-01T12:38:45;97230.69;;;24.45;19.60
12178;BME280;6152;48.728;9.256;2023-03-01T12:46:54;97203.94;;;24.38;19.24
12178;BME280;6152;48.728;9.256;2023-03-01T12:49:55;97183.53;;;22.57;21.17
12178;BME280;6152;48.728;9.256;2023-03-01T12:52:39;97187.34;;;21.81;21.48
12178;BME280;6152;48.728;9.256;2023-03-01T13:06:50;97168.16;;;18.69;24.75
12178;BME280;6152;48.728;9.256;2023-03-01T13:09:09;97179.41;;;16.73;27.34
12178;BME280;6152;48.728;9.256;2023-03-01T13:11:42;97178.91;;;15.40;29.68
12178;BME280;6152;48.728;9.256;2023-03-01T13:16:47;97183.72;;;13.37;32.78
12178;BME280;6152;48.728;9.256;2023-03-01T13:19:22;97183.97;;;12.71;33.92
12178;BME280;6152;48.728;9.256;2023-03-01T13:21:50;97195.31;;;11.93;36.03
12178;BME280;6152;48.728;9.256;2023-03-01T13:24:36;97198.22;;;11.33;36.96
12178;BME280;6152;48.728;9.256;2023-03-01T13:29:46;97195.69;;;10.47;38.81
12178;BME280;6152;48.728;9.256;2023-03-01T13:32:26;97191.00;;;10.08;40.01
12178;BME280;6152;48.728;9.256;2023-03-01T13:34:59;97184.34;;;9.88;40.38
12178;BME280;6152;48.728;9.256;2023-03-01T13:37:34;97179.84;;;9.60;41.05
12178;BME280;6152;48.728;9.256;2023-03-01T13:40:57;97183.53;;;9.56;42.24
12178;BME280;6152;48.728;9.256;2023-03-01T13:42:53;97175.41;;;9.62;41.49
12178;BME280;6152;48.728;9.256;2023-03-01T13:45:24;97171.28;;;9.58;41.97
12178;BME280;6152;48.728;9.256;2023-03-01T13:48:01;97182.97;;;9.51;42.40
12178;BME280;6152;48.728;9.256;2023-03-01T13:50:30;97170.88;;;9.35;42.76
12178;BME280;6152;48.728;9.256;2023-03-01T13:53:02;97170.56;;;9.25;43.26
12178;BME280;6152;48.728;9.256;2023-03-01T13:56:12;97181.59;;;8.97;44.04
12178;BME280;6152;48.728;9.256;2023-03-01T13:58:51;97173.13;;;8.94;44.38
12178;BME280;6152;48.728;9.256;2023-03-01T14:03:48;97163.00;;;8.89;44.39
12178;BME280;6152;48.728;9.256;2023-03-01T14:06:28;97158.72;;;8.88;44.36
12178;BME280;6152;48.728;9.256;2023-03-01T14:09:44;97155.91;;;8.93;44.24
12178;BME280;6152;48.728;9.256;2023-03-01T14:15:15;97163.34;;;8.66;45.34
12178;BME280;6152;48.728;9.256;2023-03-01T14:20:25;97166.53;;;8.38;45.97
12178;BME280;6152;48.728;9.256;2023-03-01T14:22:58;97176.69;;;8.43;46.24
12178;BME280;6152;48.728;9.256;2023-03-01T14:25:31;97181.50;;;8.33;46.22
12178;BME280;6152;48.728;9.256;2023-03-01T14:28:10;97176.00;;;8.39;46.16
12178;BME280;6152;48.728;9.256;2023-03-01T14:30:42;97185.44;;;8.23;46.53
12178;BME280;6152;48.728;9.256;2023-03-01T14:33:25;97176.47;;;8.30;46.40
12178;BME280;6152;48.728;9.256;2023-03-01T14:38:45;97188.41;;;8.16;47.00
12178;BME280;6152;48.728;9.256;2023-03-01T14:41:15;97189.94;;;8.20;47.03
12178;BME280;6152;48.728;9.256;2023-03-01T14:48:54;97197.78;;;8.18;47.66
12178;BME280;6152;48.728;9.256;2023-03-01T14:51:22;97188.78;;;8.25;47.55
12178;BME280;6152;48.728;9.256;2023-03-01T14:53:48;97195.53;;;8.29;47.61
12178;BME280;6152;48.728;9.256;2023-03-01T14:56:16;97192.09;;;8.29;47.65
12178;BME280;6152;48.728;9.256;2023-03-01T14:58:45;97190.19;;;8.32;48.45
12178;BME280;6152;48.728;9.256;2023-03-01T15:01:16;97199.41;;;8.38;47.70
12178;BME280;6152;48.728;9.256;2023-03-01T15:03:48;97197.34;;;8.27;48.04
12178;BME280;6152;48.728;9.256;2023-03-01T15:06:18;97197.47;;;8.24;48.03
12178;BME280;6152;48.728;9.256;2023-03-01T15:08:48;97192.75;;;8.15;48.72
12178;BME280;6152;48.728;9.256;2023-03-01T15:11:30;97198.56;;;8.20;48.38
12178;BME280;6152;48.728;9.256;2023-03-01T15:13:57;97198.84;;;8.14;48.89
12178;BME280;6152;48.728;9.256;2023-03-01T15:16:34;97190.78;;;8.03;48.64
12178;BME280;6152;48.728;9.256;2023-03-01T15:19:06;97199.66;;;7.97;48.74